sensor_id;sensor_type;location;lat;lon;timestamp;temperature;humidity
26262;DHT22;13988;52.446;13.280;2022-07-23T00:01:17;17.70;99.90
26262;DHT22;13988;52.446;13.280;2022-07-23T00:03:43;17.50;99.90
26262;DHT22;13988;52.446;13.280;2022-07-23T00:06:11;17.40;99.90
26262;DHT22;13988;52.446;13.280;2022-07-23T00:08:37;17.50;99.90
26262;DHT22;13988;52.446;13.280;2022-07-23T00:11:03;17.40;99.90
26262;DHT22;13988;52.446;13.280;2022-07-23T00:13:29;17.60;99.90
26262;DHT22;13988;52.446;13.280;2022-07-23T00:15:55;17.60;99.90
26262;DHT22;13988;52.446;13.280;2022-07-23T00:18:21;17.70;99.90
26262;DHT22;13988;52.446;13.280;2022-07-23T00:20:47;17.80;99.90
26262;DHT22;13988;52.446;13.280;2022-07-23T00:23:12;17.70;99.90
26262;DHT22;13988;52.446;13.280;2022-07-23T00:25:38;17.70;99.90
26262;DHT22;13988;52.446;13.280;2022-07-23T00:28:04;17.80;99.90
26262;DHT22;13988;52.446;13.280;2022-07-23T00:30:31;17.70;99.90
26262;DHT22;13988;52.446;13.280;2022-07-23T00:33:00;17.70;99.90
26262;DHT22;13988;52.446;13.280;2022-07-23T00:35:28;17.60;99.90
26262;DHT22;13988;52.446;13.280;2022-07-23T00:37:55;17.50;99.90
26262;DHT22;13988;52.446;13.280;2022-07-23T00:40:21;17.70;99.90
26262;DHT22;13988;52.446;13.280;2022-07-23T00:42:47;17.70;99.90
26262;DHT22;13988;52.446;13.280;2022-07-23T00:45:12;17.90;99.90
26262;DHT22;13988;52.446;13.280;2022-07-23T00:47:38;17.60;99.90
26262;DHT22;13988;52.446;13.280;2022-07-23T00:50:06;17.20;99.90
26262;DHT22;13988;52.446;13.280;2022-07-23T00:52:33;17.00;99.90
26262;DHT22;13988;52.446;13.280;2022-07-23T00:54:59;17.20;99.90
26262;DHT22;13988;52.446;13.280;2022-07-23T00:57:25;17.60;99.90
26262;DHT22;13988;52.446;13.280;2022-07-23T00:59:51;17.70;99.90
26262;DHT22;13988;52.446;13.280;2022-07-23T01:02:19;17.70;99.90
26262;DHT22;13988;52.446;13.280;2022-07-23T01:04:45;17.50;99.90
26262;DHT22;13988;52.446;13.280;2022-07-23T01:07:11;17.60;99.90
26262;DHT22;13988;52.446;13.280;2022-07-23T01:09:38;17.70;99.90
26262;DHT22;13988;52.446;13.280;2022-07-23T01:12:04;17.60;99.90
26262;DHT22;13988;52.446;13.280;2022-07-23T01:14:30;17.50;99.90
26262;DHT22;13988;52.446;13.280;2022-07-23T01:16:56;17.40;99.90
26262;DHT22;13988;52.446;13.280;2022-07-23T01:19:22;17.30;99.90
26262;DHT22;13988;52.446;13.280;2022-07-23T01:21:50;17.30;99.90
26262;DHT22;13988;52.446;13.280;2022-07-23T01:24:18;17.30;99.90
26262;DHT22;13988;52.446;13.280;2022-07-23T01:26:47;17.40;99.90
26262;DHT22;13988;52.446;13.280;2022-07-23T01:29:14;17.30;99.90
26262;DHT22;13988;52.446;13.280;2022-07-23T01:31:40;17.30;99.90
26262;DHT22;13988;52.446;13.280;2022-07-23T01:34:07;17.40;99.90
26262;DHT22;13988;52.446;13.280;2022-07-23T01:36:36;17.30;99.90
26262;DHT22;13988;52.446;13.280;2022-07-23T01:39:04;17.30;99.90
26262;DHT22;13988;52.446;13.280;2022-07-23T01:41:30;17.30;99.90
26262;DHT22;13988;52.446;13.280;2022-07-23T01:43:56;17.20;99.90
26262;DHT22;13988;52.446;13.280;2022-07-23T01:46:21;17.30;99.90
26262;DHT22;13988;52.446;13.280;2022-07-23T01:48:47;17.20;99.90
26262;DHT22;13988;52.446;13.280;2022-07-23T01:51:13;17.20;99.90
26262;DHT22;13988;52.446;13.280;2022-07-23T01:53:41;17.20;99.90
26262;DHT22;13988;52.446;13.280;2022-07-23T01:56:07;17.30;99.90
26262;DHT22;13988;52.446;13.280;2022-07-23T01:58:33;17.30;99.90
26262;DHT22;13988;52.446;13.280;2022-07-23T02:00:59;17.10;99.90
26262;DHT22;13988;52.446;13.280;2022-07-23T02:03:25;17.00;99.90
26262;DHT22;13988;52.446;13.280;2022-07-23T02:05:51;16.90;99.90
26262;DHT22;13988;52.446;13.280;2022-07-23T02:08:17;17.00;99.90
26262;DHT22;13988;52.446;13.280;2022-07-23T02:10:43;16.80;99.90
26262;DHT22;13988;52.446;13.280;2022-07-23T02:13:09;16.90;99.90
26262;DHT22;13988;52.446;13.280;2022-07-23T02:15:35;16.80;99.90
26262;DHT22;13988;52.446;13.280;2022-07-23T02:18:01;16.80;99.90
26262;DHT22;13988;52.446;13.280;2022-07-23T02:20:26;16.60;99.90
26262;DHT22;13988;52.446;13.280;2022-07-23T02:22:52;16.80;99.90
26262;DHT22;13988;52.446;13.280;2022-07-23T02:25:18;17.10;99.90
26262;DHT22;13988;52.446;13.280;2022-07-23T02:27:44;17.10;99.90
26262;DHT22;13988;52.446;13.280;2022-07-23T02:30:10;17.10;99.90
26262;DHT22;13988;52.446;13.280;2022-07-23T02:32:36;16.80;99.90
26262;DHT22;13988;52.446;13.280;2022-07-23T02:35:03;16.80;99.90
26262;DHT22;13988;52.446;13.280;2022-07-23T02:37:29;16.80;99.90
26262;DHT22;13988;52.446;13.280;2022-07-23T02:39:55;17.00;99.90
26262;DHT22;13988;52.446;13.280;2022-07-23T02:42:21;17.00;99.90
26262;DHT22;13988;52.446;13.280;2022-07-23T02:44:47;17.10;99.90
26262;DHT22;13988;52.446;13.280;2022-07-23T02:47:12;17.20;99.90
26262;DHT22;13988;52.446;13.280;2022-07-23T02:49:38;17.20;99.90
26262;DHT22;13988;52.446;13.280;2022-07-23T02:52:04;17.10;99.90
26262;DHT22;13988;52.446;13.280;2022-07-23T02:54:30;16.90;99.90
26262;DHT22;13988;52.446;13.280;2022-07-23T02:56:55;16.90;99.90
26262;DHT22;13988;52.446;13.280;2022-07-23T02:59:23;16.90;99.90
26262;DHT22;13988;52.446;13.280;2022-07-23T03:01:49;16.70;99.90
26262;DHT22;13988;52.446;13.280;2022-07-23T03:04:24;16.60;99.90
26262;DHT22;13988;52.446;13.280;2022-07-23T03:06:49;16.80;99.90
26262;DHT22;13988;52.446;13.280;2022-07-23T03:09:15;16.80;99.90
26262;DHT22;13988;52.446;13.280;2022-07-23T03:11:41;16.80;99.90
26262;DHT22;13988;52.446;13.280;2022-07-23T03:14:07;16.80;99.90
26262;DHT22;13988;52.446;13.280;2022-07-23T03:16:33;16.90;99.90
26262;DHT22;13988;52.446;13.280;2022-07-23T03:18:58;16.80;99.90
26262;DHT22;13988;52.446;13.280;2022-07-23T03:21:24;16.60;99.90
26262;DHT22;13988;52.446;13.280;2022-07-23T03:23:50;16.80;99.90
26262;DHT22;13988;52.446;13.280;2022-07-23T03:26:16;16.90;99.90
26262;DHT22;13988;52.446;13.280;2022-07-23T03:28:42;16.80;99.90
26262;DHT22;13988;52.446;13.280;2022-07-23T03:31:08;16.70;99.90
26262;DHT22;13988;52.446;13.280;2022-07-23T03:33:34;16.80;99.90
26262;DHT22;13988;52.446;13.280;2022-07-23T03:36:00;16.70;99.90
26262;DHT22;13988;52.446;13.280;2022-07-23T03:38:26;16.90;99.90
26262;DHT22;13988;52.446;13.280;2022-07-23T03:40:51;16.90;99.90
26262;DHT22;13988;52.446;13.280;2022-07-23T03:43:17;16.90;99.90
26262;DHT22;13988;52.446;13.280;2022-07-23T03:45:43;16.90;99.90
26262;DHT22;13988;52.446;13.280;2022-07-23T03:48:09;16.80;99.90
26262;DHT22;13988;52.446;13.280;2022-07-23T03:50:34;16.90;99.90
26262;DHT22;13988;52.446;13.280;2022-07-23T03:53:10;16.90;99.90
26262;DHT22;13988;52.446;13.280;2022-07-23T03:55:36;16.90;99.90
26262;DHT22;13988;52.446;13.280;2022-07-23T03:58:02;16.60;99.90
26262;DHT22;13988;52.446;13.280;2022-07-23T04:00:28;16.50;99.90
26262;DHT22;13988;52.446;13.280;2022-07-23T04:02:54;16.70;99.90
26262;DHT22;13988;52.446;13.280;2022-07-23T04:05:19;16.70;99.90
26262;DHT22;13988;52.446;13.280;2022-07-23T04:07:45;16.30;99.90
26262;DHT22;13988;52.446;13.280;2022-07-23T04:10:22;16.40;99.90
26262;DHT22;13988;52.446;13.280;2022-07-23T04:12:48;16.30;99.90
26262;DHT22;13988;52.446;13.280;2022-07-23T04:15:13;16.20;99.90
26262;DHT22;13988;52.446;13.280;2022-07-23T04:17:39;16.40;99.90
26262;DHT22;13988;52.446;13.280;2022-07-23T04:20:05;16.60;99.90
26262;DHT22;13988;52.446;13.280;2022-07-23T04:22:31;16.20;99.90
26262;DHT22;13988;52.446;13.280;2022-07-23T04:24:57;16.20;99.90
26262;DHT22;13988;52.446;13.280;2022-07-23T04:27:22;16.20;99.90
26262;DHT22;13988;52.446;13.280;2022-07-23T04:29:48;15.90;99.90
26262;DHT22;13988;52.446;13.280;2022-07-23T04:32:13;15.80;99.90
26262;DHT22;13988;52.446;13.280;2022-07-23T04:34:39;16.00;99.90
26262;DHT22;13988;52.446;13.280;2022-07-23T04:37:04;16.20;99.90
26262;DHT22;13988;52.446;13.280;2022-07-23T04:39:30;15.80;99.90
26262;DHT22;13988;52.446;13.280;2022-07-23T04:41:56;15.80;99.90
26262;DHT22;13988;52.446;13.280;2022-07-23T04:44:21;15.80;99.90
26262;DHT22;13988;52.446;13.280;2022-07-23T04:46:47;15.90;99.90
26262;DHT22;13988;52.446;13.280;2022-07-23T04:49:12;16.10;99.90
26262;DHT22;13988;52.446;13.280;2022-07-23T04:51:38;16.30;99.90
26262;DHT22;13988;52.446;13.280;2022-07-23T04:54:04;16.40;99.90
26262;DHT22;13988;52.446;13.280;2022-07-23T04:56:29;16.20;99.90
26262;DHT22;13988;52.446;13.280;2022-07-23T04:58:55;15.60;99.90
26262;DHT22;13988;52.446;13.280;2022-07-23T05:01:20;15.20;99.90
26262;DHT22;13988;52.446;13.280;2022-07-23T05:03:46;15.60;99.90
26262;DHT22;13988;52.446;13.280;2022-07-23T05:06:14;15.50;99.90
26262;DHT22;13988;52.446;13.280;2022-07-23T05:08:39;15.40;99.90
26262;DHT22;13988;52.446;13.280;2022-07-23T05:11:05;15.10;99.90
26262;DHT22;13988;52.446;13.280;2022-07-23T05:13:31;15.10;99.90
26262;DHT22;13988;52.446;13.280;2022-07-23T05:15:56;15.20;99.90
26262;DHT22;13988;52.446;13.280;2022-07-23T05:18:22;15.10;99.90
26262;DHT22;13988;52.446;13.280;2022-07-23T05:20:47;15.20;99.90
26262;DHT22;13988;52.446;13.280;2022-07-23T05:23:13;15.10;99.90
26262;DHT22;13988;52.446;13.280;2022-07-23T05:25:39;15.00;99.90
26262;DHT22;13988;52.446;13.280;2022-07-23T05:28:05;15.00;99.90
26262;DHT22;13988;52.446;13.280;2022-07-23T05:30:31;15.10;99.90
26262;DHT22;13988;52.446;13.280;2022-07-23T05:32:56;15.20;99.90
26262;DHT22;13988;52.446;13.280;2022-07-23T05:35:22;15.40;99.90
26262;DHT22;13988;52.446;13.280;2022-07-23T05:37:47;15.60;99.90
26262;DHT22;13988;52.446;13.280;2022-07-23T05:40:13;15.90;99.90
26262;DHT22;13988;52.446;13.280;2022-07-23T05:42:40;15.70;99.90
26262;DHT22;13988;52.446;13.280;2022-07-23T05:45:07;16.00;99.90
26262;DHT22;13988;52.446;13.280;2022-07-23T05:48:00;16.20;99.90
26262;DHT22;13988;52.446;13.280;2022-07-23T05:50:25;16.10;99.90
26262;DHT22;13988;52.446;13.280;2022-07-23T05:52:51;15.80;99.90
26262;DHT22;13988;52.446;13.280;2022-07-23T05:55:16;15.70;99.90
26262;DHT22;13988;52.446;13.280;2022-07-23T05:57:42;16.10;99.90
26262;DHT22;13988;52.446;13.280;2022-07-23T06:00:09;16.20;99.90
26262;DHT22;13988;52.446;13.280;2022-07-23T06:02:35;16.10;99.90
26262;DHT22;13988;52.446;13.280;2022-07-23T06:05:00;15.80;99.90
26262;DHT22;13988;52.446;13.280;2022-07-23T06:07:26;15.80;99.90
26262;DHT22;13988;52.446;13.280;2022-07-23T06:09:52;15.50;99.90
26262;DHT22;13988;52.446;13.280;2022-07-23T06:12:17;15.20;99.90
26262;DHT22;13988;52.446;13.280;2022-07-23T06:14:43;15.40;99.90
26262;DHT22;13988;52.446;13.280;2022-07-23T06:17:09;15.70;99.90
26262;DHT22;13988;52.446;13.280;2022-07-23T06:19:34;15.50;99.90
26262;DHT22;13988;52.446;13.280;2022-07-23T06:22:00;15.90;99.90
26262;DHT22;13988;52.446;13.280;2022-07-23T06:24:26;16.00;99.90
26262;DHT22;13988;52.446;13.280;2022-07-23T06:26:51;16.20;99.90
26262;DHT22;13988;52.446;13.280;2022-07-23T06:29:17;16.00;99.90
26262;DHT22;13988;52.446;13.280;2022-07-23T06:31:43;15.70;99.90
26262;DHT22;13988;52.446;13.280;2022-07-23T06:34:08;15.40;99.90
26262;DHT22;13988;52.446;13.280;2022-07-23T06:36:34;15.50;99.90
26262;DHT22;13988;52.446;13.280;2022-07-23T06:38:59;16.00;99.90
26262;DHT22;13988;52.446;13.280;2022-07-23T06:41:25;15.70;99.90
26262;DHT22;13988;52.446;13.280;2022-07-23T06:43:50;15.80;99.90
26262;DHT22;13988;52.446;13.280;2022-07-23T06:46:16;15.70;99.90
26262;DHT22;13988;52.446;13.280;2022-07-23T06:48:42;16.00;99.90
26262;DHT22;13988;52.446;13.280;2022-07-23T06:51:07;16.10;99.90
26262;DHT22;13988;52.446;13.280;2022-07-23T06:53:33;16.00;99.90
26262;DHT22;13988;52.446;13.280;2022-07-23T06:55:59;16.10;99.90
26262;DHT22;13988;52.446;13.280;2022-07-23T06:58:24;16.10;99.90
26262;DHT22;13988;52.446;13.280;2022-07-23T07:00:50;16.00;99.90
26262;DHT22;13988;52.446;13.280;2022-07-23T07:03:17;16.10;99.90
26262;DHT22;13988;52.446;13.280;2022-07-23T07:05:43;16.30;99.90
26262;DHT22;13988;52.446;13.280;2022-07-23T07:08:09;16.60;99.90
26262;DHT22;13988;52.446;13.280;2022-07-23T07:10:34;16.50;99.90
26262;DHT22;13988;52.446;13.280;2022-07-23T07:13:00;16.50;99.90
26262;DHT22;13988;52.446;13.280;2022-07-23T07:15:26;16.60;99.90
26262;DHT22;13988;52.446;13.280;2022-07-23T07:17:51;16.70;99.90
26262;DHT22;13988;52.446;13.280;2022-07-23T07:20:17;16.70;99.90
26262;DHT22;13988;52.446;13.280;2022-07-23T07:22:43;16.80;99.90
26262;DHT22;13988;52.446;13.280;2022-07-23T07:25:08;16.60;99.90
26262;DHT22;13988;52.446;13.280;2022-07-23T07:27:34;16.60;99.90
26262;DHT22;13988;52.446;13.280;2022-07-23T07:30:00;16.60;99.90
26262;DHT22;13988;52.446;13.280;2022-07-23T07:32:26;16.90;99.90
26262;DHT22;13988;52.446;13.280;2022-07-23T07:34:51;17.00;99.90
26262;DHT22;13988;52.446;13.280;2022-07-23T07:37:17;16.90;99.90
26262;DHT22;13988;52.446;13.280;2022-07-23T07:39:42;16.60;99.90
26262;DHT22;13988;52.446;13.280;2022-07-23T07:42:08;16.70;99.90
26262;DHT22;13988;52.446;13.280;2022-07-23T07:44:34;17.20;99.90
26262;DHT22;13988;52.446;13.280;2022-07-23T07:46:59;17.30;99.90
26262;DHT22;13988;52.446;13.280;2022-07-23T07:49:25;17.40;99.90
26262;DHT22;13988;52.446;13.280;2022-07-23T07:51:50;17.30;99.90
26262;DHT22;13988;52.446;13.280;2022-07-23T07:54:16;17.50;99.90
26262;DHT22;13988;52.446;13.280;2022-07-23T07:56:41;17.60;99.90
26262;DHT22;13988;52.446;13.280;2022-07-23T07:59:07;17.80;99.90
26262;DHT22;13988;52.446;13.280;2022-07-23T08:01:33;17.60;99.90
26262;DHT22;13988;52.446;13.280;2022-07-23T08:03:59;18.10;99.90
26262;DHT22;13988;52.446;13.280;2022-07-23T08:06:24;20.00;99.90
26262;DHT22;13988;52.446;13.280;2022-07-23T08:08:50;19.80;99.90
26262;DHT22;13988;52.446;13.280;2022-07-23T08:11:16;20.50;99.90
26262;DHT22;13988;52.446;13.280;2022-07-23T08:13:41;20.30;99.90
26262;DHT22;13988;52.446;13.280;2022-07-23T08:16:10;20.70;99.90
26262;DHT22;13988;52.446;13.280;2022-07-23T08:18:35;20.00;99.90
26262;DHT22;13988;52.446;13.280;2022-07-23T08:21:01;19.30;99.90
26262;DHT22;13988;52.446;13.280;2022-07-23T08:23:26;19.30;99.90
26262;DHT22;13988;52.446;13.280;2022-07-23T08:25:52;19.40;99.90
26262;DHT22;13988;52.446;13.280;2022-07-23T08:28:18;19.50;99.90
26262;DHT22;13988;52.446;13.280;2022-07-23T08:30:44;19.20;99.90
26262;DHT22;13988;52.446;13.280;2022-07-23T08:33:19;19.20;99.90
26262;DHT22;13988;52.446;13.280;2022-07-23T08:35:49;19.10;99.90
26262;DHT22;13988;52.446;13.280;2022-07-23T08:38:21;19.40;99.90
26262;DHT22;13988;52.446;13.280;2022-07-23T08:40:49;19.10;99.90
26262;DHT22;13988;52.446;13.280;2022-07-23T08:43:26;19.20;99.90
26262;DHT22;13988;52.446;13.280;2022-07-23T08:45:54;19.20;99.90
26262;DHT22;13988;52.446;13.280;2022-07-23T08:48:26;19.40;99.90
26262;DHT22;13988;52.446;13.280;2022-07-23T08:50:54;19.40;99.90
26262;DHT22;13988;52.446;13.280;2022-07-23T08:53:21;19.40;99.90
26262;DHT22;13988;52.446;13.280;2022-07-23T08:55:49;18.90;99.90
26262;DHT22;13988;52.446;13.280;2022-07-23T08:58:17;19.30;99.90
26262;DHT22;13988;52.446;13.280;2022-07-23T09:00:44;19.40;99.90
26262;DHT22;13988;52.446;13.280;2022-07-23T09:03:21;19.70;99.90
26262;DHT22;13988;52.446;13.280;2022-07-23T09:05:49;19.60;99.90
26262;DHT22;13988;52.446;13.280;2022-07-23T09:08:20;19.80;99.90
26262;DHT22;13988;52.446;13.280;2022-07-23T09:11:01;20.10;99.90
26262;DHT22;13988;52.446;13.280;2022-07-23T09:16:25;20.20;99.90
26262;DHT22;13988;52.446;13.280;2022-07-23T09:18:57;20.20;99.90
26262;DHT22;13988;52.446;13.280;2022-07-23T09:21:26;19.80;99.90
26262;DHT22;13988;52.446;13.280;2022-07-23T09:24:03;18.90;99.90
26262;DHT22;13988;52.446;13.280;2022-07-23T09:26:35;19.60;99.90
26262;DHT22;13988;52.446;13.280;2022-07-23T09:29:36;19.60;99.90
26262;DHT22;13988;52.446;13.280;2022-07-23T09:31:57;19.60;99.90
26262;DHT22;13988;52.446;13.280;2022-07-23T09:34:31;19.40;99.90
26262;DHT22;13988;52.446;13.280;2022-07-23T09:37:12;19.20;99.90
26262;DHT22;13988;52.446;13.280;2022-07-23T09:39:38;19.80;99.90
26262;DHT22;13988;52.446;13.280;2022-07-23T09:42:18;20.10;99.90
26262;DHT22;13988;52.446;13.280;2022-07-23T09:44:48;20.70;99.90
26262;DHT22;13988;52.446;13.280;2022-07-23T09:47:14;20.60;99.90
26262;DHT22;13988;52.446;13.280;2022-07-23T09:49:40;19.90;99.90
26262;DHT22;13988;52.446;13.280;2022-07-23T09:52:29;20.20;99.90
26262;DHT22;13988;52.446;13.280;2022-07-23T09:55:04;20.30;99.90
26262;DHT22;13988;52.446;13.280;2022-07-23T09:57:31;20.60;99.90
26262;DHT22;13988;52.446;13.280;2022-07-23T09:59:58;20.60;99.90
26262;DHT22;13988;52.446;13.280;2022-07-23T10:02:25;21.20;99.90
26262;DHT22;13988;52.446;13.280;2022-07-23T10:04:56;20.90;99.90
26262;DHT22;13988;52.446;13.280;2022-07-23T10:07:22;21.00;99.90
26262;DHT22;13988;52.446;13.280;2022-07-23T10:09:52;20.60;99.90
26262;DHT22;13988;52.446;13.280;2022-07-23T10:12:20;20.20;99.90
26262;DHT22;13988;52.446;13.280;2022-07-23T10:15:05;19.70;99.90
26262;DHT22;13988;52.446;13.280;2022-07-23T10:17:34;20.20;99.90
26262;DHT22;13988;52.446;13.280;2022-07-23T10:20:00;20.10;99.90
26262;DHT22;13988;52.446;13.280;2022-07-23T10:22:29;20.10;99.90
26262;DHT22;13988;52.446;13.280;2022-07-23T10:25:08;20.50;99.90
26262;DHT22;13988;52.446;13.280;2022-07-23T10:38:25;20.90;99.90
26262;DHT22;13988;52.446;13.280;2022-07-23T10:40:56;20.90;99.90
26262;DHT22;13988;52.446;13.280;2022-07-23T10:43:31;21.00;99.90
26262;DHT22;13988;52.446;13.280;2022-07-23T10:46:24;21.00;99.90
26262;DHT22;13988;52.446;13.280;2022-07-23T10:49:36;21.20;99.90
26262;DHT22;13988;52.446;13.280;2022-07-23T10:54:44;22.00;99.90
26262;DHT22;13988;52.446;13.280;2022-07-23T10:57:14;21.80;99.90
26262;DHT22;13988;52.446;13.280;2022-07-23T11:02:42;22.80;99.90
26262;DHT22;13988;52.446;13.280;2022-07-23T11:05:19;22.60;99.90
26262;DHT22;13988;52.446;13.280;2022-07-23T11:10:46;22.50;99.90
26262;DHT22;13988;52.446;13.280;2022-07-23T11:18:54;23.50;99.90
26262;DHT22;13988;52.446;13.280;2022-07-23T11:32:24;23.50;99.90
26262;DHT22;13988;52.446;13.280;2022-07-23T11:34:51;24.80;99.90
26262;DHT22;13988;52.446;13.280;2022-07-23T11:37:39;24.60;99.90
26262;DHT22;13988;52.446;13.280;2022-07-23T11:40:08;25.40;99.90
26262;DHT22;13988;52.446;13.280;2022-07-23T11:42:36;24.30;99.90
26262;DHT22;13988;52.446;13.280;2022-07-23T11:45:04;24.40;99.90
26262;DHT22;13988;52.446;13.280;2022-07-23T11:47:30;25.30;99.90
26262;DHT22;13988;52.446;13.280;2022-07-23T11:49:57;24.90;99.90
26262;DHT22;13988;52.446;13.280;2022-07-23T11:52:27;24.00;99.90
26262;DHT22;13988;52.446;13.280;2022-07-23T11:55:02;24.00;99.90
26262;DHT22;13988;52.446;13.280;2022-07-23T11:57:34;24.50;99.90
26262;DHT22;13988;52.446;13.280;2022-07-23T12:00:17;23.60;99.90
26262;DHT22;13988;52.446;13.280;2022-07-23T12:02:46;23.60;99.90
26262;DHT22;13988;52.446;13.280;2022-07-23T12:05:20;23.60;99.90
26262;DHT22;13988;52.446;13.280;2022-07-23T12:07:47;23.60;99.90
26262;DHT22;13988;52.446;13.280;2022-07-23T12:10:42;24.00;99.90
26262;DHT22;13988;52.446;13.280;2022-07-23T12:13:13;24.10;99.90
26262;DHT22;13988;52.446;13.280;2022-07-23T12:15:48;24.10;99.90
26262;DHT22;13988;52.446;13.280;2022-07-23T12:18:17;24.00;99.90
26262;DHT22;13988;52.446;13.280;2022-07-23T12:20:49;24.20;99.90
26262;DHT22;13988;52.446;13.280;2022-07-23T12:23:20;25.10;99.90
26262;DHT22;13988;52.446;13.280;2022-07-23T12:25:47;23.90;99.90
26262;DHT22;13988;52.446;13.280;2022-07-23T12:28:27;22.60;99.90
26262;DHT22;13988;52.446;13.280;2022-07-23T12:30:55;23.40;99.90
26262;DHT22;13988;52.446;13.280;2022-07-23T12:35:49;23.20;99.90
26262;DHT22;13988;52.446;13.280;2022-07-23T12:38:35;23.30;99.90
26262;DHT22;13988;52.446;13.280;2022-07-23T12:41:01;23.00;99.90
26262;DHT22;13988;52.446;13.280;2022-07-23T12:43:38;23.40;99.90
26262;DHT22;13988;52.446;13.280;2022-07-23T12:46:18;23.50;99.90
26262;DHT22;13988;52.446;13.280;2022-07-23T12:51:21;23.90;99.90
26262;DHT22;13988;52.446;13.280;2022-07-23T12:53:52;24.20;99.90
26262;DHT22;13988;52.446;13.280;2022-07-23T12:56:31;24.20;99.90
26262;DHT22;13988;52.446;13.280;2022-07-23T12:59:04;23.80;99.90
26262;DHT22;13988;52.446;13.280;2022-07-23T13:01:40;24.60;99.90
26262;DHT22;13988;52.446;13.280;2022-07-23T13:06:58;26.10;99.90
26262;DHT22;13988;52.446;13.280;2022-07-23T13:09:31;27.20;99.90
26262;DHT22;13988;52.446;13.280;2022-07-23T13:11:58;26.80;99.90
26262;DHT22;13988;52.446;13.280;2022-07-23T13:14:26;26.40;99.90
26262;DHT22;13988;52.446;13.280;2022-07-23T13:16:52;24.90;99.90
26262;DHT22;13988;52.446;13.280;2022-07-23T13:19:26;24.40;99.90
26262;DHT22;13988;52.446;13.280;2022-07-23T13:21:52;23.90;99.90
26262;DHT22;13988;52.446;13.280;2022-07-23T13:24:18;23.80;99.90
26262;DHT22;13988;52.446;13.280;2022-07-23T13:26:44;25.20;99.90
26262;DHT22;13988;52.446;13.280;2022-07-23T13:29:14;25.30;99.90
26262;DHT22;13988;52.446;13.280;2022-07-23T13:31:40;24.60;99.90
26262;DHT22;13988;52.446;13.280;2022-07-23T13:34:06;24.00;99.90
26262;DHT22;13988;52.446;13.280;2022-07-23T13:36:32;24.60;99.90
26262;DHT22;13988;52.446;13.280;2022-07-23T13:38:58;25.20;99.90
26262;DHT22;13988;52.446;13.280;2022-07-23T13:41:24;25.00;99.90
26262;DHT22;13988;52.446;13.280;2022-07-23T13:43:56;26.00;99.90
26262;DHT22;13988;52.446;13.280;2022-07-23T13:46:31;26.00;99.90
26262;DHT22;13988;52.446;13.280;2022-07-23T13:48:57;25.40;99.90
26262;DHT22;13988;52.446;13.280;2022-07-23T13:51:22;24.80;99.90
26262;DHT22;13988;52.446;13.280;2022-07-23T13:53:49;24.70;99.90
26262;DHT22;13988;52.446;13.280;2022-07-23T13:56:15;24.40;99.90
26262;DHT22;13988;52.446;13.280;2022-07-23T13:58:40;24.20;99.90
26262;DHT22;13988;52.446;13.280;2022-07-23T14:01:06;25.50;99.90
26262;DHT22;13988;52.446;13.280;2022-07-23T14:03:32;26.10;99.90
26262;DHT22;13988;52.446;13.280;2022-07-23T14:05:57;26.20;99.90
26262;DHT22;13988;52.446;13.280;2022-07-23T14:08:27;25.90;99.90
26262;DHT22;13988;52.446;13.280;2022-07-23T14:10:53;24.80;99.90
26262;DHT22;13988;52.446;13.280;2022-07-23T14:13:18;24.70;99.90
26262;DHT22;13988;52.446;13.280;2022-07-23T14:15:50;25.00;99.90
26262;DHT22;13988;52.446;13.280;2022-07-23T14:18:25;24.70;99.90
26262;DHT22;13988;52.446;13.280;2022-07-23T14:20:50;24.50;99.90
26262;DHT22;13988;52.446;13.280;2022-07-23T14:23:16;24.80;99.90
26262;DHT22;13988;52.446;13.280;2022-07-23T14:25:42;25.40;99.90
26262;DHT22;13988;52.446;13.280;2022-07-23T14:28:15;26.00;99.90
26262;DHT22;13988;52.446;13.280;2022-07-23T14:30:43;25.90;97.10
26262;DHT22;13988;52.446;13.280;2022-07-23T14:33:09;25.90;96.30
26262;DHT22;13988;52.446;13.280;2022-07-23T14:35:35;25.80;99.00
26262;DHT22;13988;52.446;13.280;2022-07-23T14:38:00;25.60;97.90
26262;DHT22;13988;52.446;13.280;2022-07-23T14:40:26;24.50;98.50
26262;DHT22;13988;52.446;13.280;2022-07-23T14:42:52;24.10;99.90
26262;DHT22;13988;52.446;13.280;2022-07-23T14:45:20;24.50;99.90
26262;DHT22;13988;52.446;13.280;2022-07-23T14:47:47;25.50;97.10
26262;DHT22;13988;52.446;13.280;2022-07-23T14:50:13;25.50;96.90
26262;DHT22;13988;52.446;13.280;2022-07-23T14:52:39;26.00;95.40
26262;DHT22;13988;52.446;13.280;2022-07-23T14:55:05;25.80;96.10
26262;DHT22;13988;52.446;13.280;2022-07-23T14:57:34;25.80;97.40
26262;DHT22;13988;52.446;13.280;2022-07-23T14:59:59;25.60;96.50
26262;DHT22;13988;52.446;13.280;2022-07-23T15:02:25;26.00;94.80
26262;DHT22;13988;52.446;13.280;2022-07-23T15:04:50;25.60;94.00
26262;DHT22;13988;52.446;13.280;2022-07-23T15:07:16;25.70;94.30
26262;DHT22;13988;52.446;13.280;2022-07-23T15:09:41;25.30;93.00
26262;DHT22;13988;52.446;13.280;2022-07-23T15:12:07;25.60;94.60
26262;DHT22;13988;52.446;13.280;2022-07-23T15:14:33;25.90;95.10
26262;DHT22;13988;52.446;13.280;2022-07-23T15:16:58;25.50;95.60
26262;DHT22;13988;52.446;13.280;2022-07-23T15:19:24;24.90;94.60
26262;DHT22;13988;52.446;13.280;2022-07-23T15:21:50;24.90;97.10
26262;DHT22;13988;52.446;13.280;2022-07-23T15:24:16;25.00;93.80
26262;DHT22;13988;52.446;13.280;2022-07-23T15:26:42;25.00;94.70
26262;DHT22;13988;52.446;13.280;2022-07-23T15:29:07;25.50;95.50
26262;DHT22;13988;52.446;13.280;2022-07-23T15:31:33;25.80;92.20
26262;DHT22;13988;52.446;13.280;2022-07-23T15:33:59;24.90;92.20
26262;DHT22;13988;52.446;13.280;2022-07-23T15:36:24;24.90;94.20
26262;DHT22;13988;52.446;13.280;2022-07-23T15:38:50;24.70;94.60
26262;DHT22;13988;52.446;13.280;2022-07-23T15:41:15;24.60;93.30
26262;DHT22;13988;52.446;13.280;2022-07-23T15:43:41;24.50;93.90
26262;DHT22;13988;52.446;13.280;2022-07-23T15:46:07;24.50;95.60
26262;DHT22;13988;52.446;13.280;2022-07-23T15:48:37;24.90;94.00
26262;DHT22;13988;52.446;13.280;2022-07-23T15:51:04;24.60;93.70
26262;DHT22;13988;52.446;13.280;2022-07-23T15:53:30;24.70;94.00
26262;DHT22;13988;52.446;13.280;2022-07-23T15:55:56;24.50;93.60
26262;DHT22;13988;52.446;13.280;2022-07-23T15:58:22;24.60;94.00
26262;DHT22;13988;52.446;13.280;2022-07-23T16:00:48;24.10;92.90
26262;DHT22;13988;52.446;13.280;2022-07-23T16:03:14;24.20;94.20
26262;DHT22;13988;52.446;13.280;2022-07-23T16:05:41;24.50;93.70